Welcome to BabcockFarms new weather site...

Visit our other weather sites:

Template documentation
and downloads

And another site



There are no active watches, warnings or advisories

Nearby METAR Reports

   
KAVP - Albrightsville, PA
Updated: Jun 23 2018 6:54 am
Overcast  
Overcast  
   Wind: NE 6.9 mph
Wind: NE 6.9 mph
Temperature: 59°F
Dew Point: 55.4°F
Humidity: 88%
Barometer: 29.89 inHg
Clouds: Overcast
Visibility: 10 mi
Cloud details: Overcast 488 m
KAVP 231154Z 05006KT 10SM OVC016 15/13 A2989 RMK AO2 RAE40 SLP115 P0002 60012 70013 T01500133 10183 20150 50001
KIWA - Apache Junction, AZ
Updated: Jun 23 2018 6:47 am
Clear  
Clear  
   Wind: East 9.2 mph
Wind: East 9.2 mph
Temperature: 78.8°F
Dew Point: 37.4°F
Humidity: 23%
Barometer: 29.75 inHg
Clouds: Clear
Visibility: 20 mi
Cloud details: Clear
KIWA 231147Z 10008KT 20SM SKC 26/03 A2975
KPKB - Blue Rock, OH
Updated: Jun 23 2018 6:53 am
Overcast  
Overcast  
   Wind: South 5.8 mph
Wind: South 5.8 mph
Temperature: 68°F
Dew Point: 64.4°F
Humidity: 88%
Barometer: 29.82 inHg
Clouds: Overcast
Visibility: 10 mi
Cloud details: Mostly Cloudy 274 m,
Mostly Cloudy 396 m,
Overcast 1097 m
KPKB 231153Z 18005KT 10SM BKN009 BKN013 OVC036 20/18 A2982 RMK AO2 SLP090 60000 70022 T02000183 10200 20189 51014
KHVN - Branford, CT
Updated: Jun 23 2018 6:53 am
Overcast  
Overcast  
   Wind: NE 11.5 mph<br />Gust to 11.5 mph
Wind: NE 11.5 mph
Gust to 11.5 mph
Temperature: 60.8°F
Dew Point: 51.8°F
Humidity: 72%
Barometer: 29.93 inHg
Clouds: Overcast
Visibility: 10 mi
Cloud details: Overcast 610 m
KHVN 231153Z 05010G16KT 10SM OVC020 16/11 A2993 RMK AO2 SLP135 T01610106 10183 20161 58005
KPHX - Carefree, AZ
Updated: Jun 23 2018 6:51 am
Few Clouds  
Few Clouds  
   Wind: ESE 5.8 mph
Wind: ESE 5.8 mph
Temperature: 84.2°F
Dew Point: 44.6°F
Humidity: 25%
Barometer: 29.7 inHg
Clouds: Few Clouds
Visibility: 10 mi
Cloud details: Few Clouds 6401 m
KPHX 231151Z 11005KT 10SM FEW210 29/07 A2970 RMK AO2 SLP035 T02890072 10367 20289 53010 $
 

Script developed by  Saratoga-weather.org Adapted for the template by  Weerstation Leuven